sensor_id;sensor_type;location;lat;lon;timestamp;P1;durP1;ratioP1;P2;durP2;ratioP2
75667;SDS011;64266;48.798;44.756;2023-01-30T00:02:12;33.50;;;13.60;;
75667;SDS011;64266;48.798;44.756;2023-01-30T00:07:15;28.85;;;13.82;;
75667;SDS011;64266;48.798;44.756;2023-01-30T00:12:18;32.08;;;11.50;;
75667;SDS011;64266;48.798;44.756;2023-01-30T00:17:21;29.50;;;13.13;;
75667;SDS011;64266;48.798;44.756;2023-01-30T00:22:24;36.60;;;13.05;;
75667;SDS011;64266;48.798;44.756;2023-01-30T00:27:27;32.25;;;12.63;;
75667;SDS011;64266;48.798;44.756;2023-01-30T00:32:30;32.78;;;13.35;;
75667;SDS011;64266;48.798;44.756;2023-01-30T00:37:34;41.58;;;14.27;;
75667;SDS011;64266;48.798;44.756;2023-01-30T00:42:37;30.65;;;12.93;;
75667;SDS011;64266;48.798;44.756;2023-01-30T00:47:59;31.60;;;13.80;;
75667;SDS011;64266;48.798;44.756;2023-01-30T00:53:01;34.63;;;14.27;;
75667;SDS011;64266;48.798;44.756;2023-01-30T00:58:04;32.72;;;14.50;;
75667;SDS011;64266;48.798;44.756;2023-01-30T01:03:06;34.45;;;14.35;;
75667;SDS011;64266;48.798;44.756;2023-01-30T01:08:09;34.03;;;14.60;;
75667;SDS011;64266;48.798;44.756;2023-01-30T01:13:12;34.33;;;14.25;;
75667;SDS011;64266;48.798;44.756;2023-01-30T01:18:14;31.90;;;13.18;;
75667;SDS011;64266;48.798;44.756;2023-01-30T01:23:19;29.45;;;13.68;;
75667;SDS011;64266;48.798;44.756;2023-01-30T01:28:23;31.58;;;13.07;;
75667;SDS011;64266;48.798;44.756;2023-01-30T01:33:26;28.23;;;12.05;;
75667;SDS011;64266;48.798;44.756;2023-01-30T01:38:31;30.23;;;12.23;;
75667;SDS011;64266;48.798;44.756;2023-01-30T01:43:36;25.60;;;10.98;;
75667;SDS011;64266;48.798;44.756;2023-01-30T01:48:59;28.77;;;13.23;;
75667;SDS011;64266;48.798;44.756;2023-01-30T01:54:08;30.40;;;12.82;;
75667;SDS011;64266;48.798;44.756;2023-01-30T01:59:23;28.83;;;12.50;;
75667;SDS011;64266;48.798;44.756;2023-01-30T02:04:32;35.33;;;14.70;;
75667;SDS011;64266;48.798;44.756;2023-01-30T02:10:24;34.03;;;13.80;;
75667;SDS011;64266;48.798;44.756;2023-01-30T02:15:44;36.50;;;14.55;;
75667;SDS011;64266;48.798;44.756;2023-01-30T02:21:05;30.83;;;14.00;;
75667;SDS011;64266;48.798;44.756;2023-01-30T02:42:25;35.63;;;13.93;;
75667;SDS011;64266;48.798;44.756;2023-01-30T02:47:44;32.83;;;13.80;;
75667;SDS011;64266;48.798;44.756;2023-01-30T02:52:53;33.40;;;13.77;;
75667;SDS011;64266;48.798;44.756;2023-01-30T02:57:58;34.17;;;13.02;;
75667;SDS011;64266;48.798;44.756;2023-01-30T03:08:37;39.30;;;15.63;;
75667;SDS011;64266;48.798;44.756;2023-01-30T03:19:21;31.60;;;13.65;;
75667;SDS011;64266;48.798;44.756;2023-01-30T03:24:24;34.83;;;13.60;;
75667;SDS011;64266;48.798;44.756;2023-01-30T03:29:27;36.50;;;15.15;;
75667;SDS011;64266;48.798;44.756;2023-01-30T03:34:30;35.40;;;14.95;;
75667;SDS011;64266;48.798;44.756;2023-01-30T03:39:33;39.70;;;14.43;;
75667;SDS011;64266;48.798;44.756;2023-01-30T03:44:36;41.28;;;16.50;;
75667;SDS011;64266;48.798;44.756;2023-01-30T03:49:41;38.42;;;15.18;;
75667;SDS011;64266;48.798;44.756;2023-01-30T03:54:57;33.25;;;13.73;;
75667;SDS011;64266;48.798;44.756;2023-01-30T04:00:01;41.92;;;14.20;;
75667;SDS011;64266;48.798;44.756;2023-01-30T04:05:06;37.42;;;14.85;;
75667;SDS011;64266;48.798;44.756;2023-01-30T04:10:09;34.80;;;15.05;;
75667;SDS011;64266;48.798;44.756;2023-01-30T04:15:13;40.22;;;16.60;;
75667;SDS011;64266;48.798;44.756;2023-01-30T04:20:23;37.03;;;16.08;;
75667;SDS011;64266;48.798;44.756;2023-01-30T04:25:29;56.40;;;19.83;;
75667;SDS011;64266;48.798;44.756;2023-01-30T04:30:33;46.90;;;19.38;;
75667;SDS011;64266;48.798;44.756;2023-01-30T04:35:55;54.70;;;21.50;;
75667;SDS011;64266;48.798;44.756;2023-01-30T04:41:00;50.17;;;20.40;;
75667;SDS011;64266;48.798;44.756;2023-01-30T04:46:07;48.97;;;20.77;;
75667;SDS011;64266;48.798;44.756;2023-01-30T04:51:10;54.42;;;22.05;;
75667;SDS011;64266;48.798;44.756;2023-01-30T04:56:15;55.97;;;23.77;;
75667;SDS011;64266;48.798;44.756;2023-01-30T05:06:24;53.58;;;22.08;;
75667;SDS011;64266;48.798;44.756;2023-01-30T05:11:28;45.90;;;20.08;;
75667;SDS011;64266;48.798;44.756;2023-01-30T05:16:32;48.00;;;20.35;;
75667;SDS011;64266;48.798;44.756;2023-01-30T05:21:35;55.03;;;22.60;;
75667;SDS011;64266;48.798;44.756;2023-01-30T05:26:39;66.47;;;25.88;;
75667;SDS011;64266;48.798;44.756;2023-01-30T05:31:43;46.05;;;20.10;;
75667;SDS011;64266;48.798;44.756;2023-01-30T05:36:47;52.45;;;20.88;;
75667;SDS011;64266;48.798;44.756;2023-01-30T05:41:50;62.78;;;22.35;;
75667;SDS011;64266;48.798;44.756;2023-01-30T05:46:53;48.50;;;19.92;;
75667;SDS011;64266;48.798;44.756;2023-01-30T05:51:56;52.40;;;21.90;;
75667;SDS011;64266;48.798;44.756;2023-01-30T05:57:04;56.80;;;23.60;;
75667;SDS011;64266;48.798;44.756;2023-01-30T06:02:08;62.72;;;25.75;;
75667;SDS011;64266;48.798;44.756;2023-01-30T06:07:13;54.45;;;22.88;;
75667;SDS011;64266;48.798;44.756;2023-01-30T06:12:17;53.13;;;22.50;;
75667;SDS011;64266;48.798;44.756;2023-01-30T06:17:21;55.88;;;22.10;;
75667;SDS011;64266;48.798;44.756;2023-01-30T06:22:23;49.20;;;22.02;;
75667;SDS011;64266;48.798;44.756;2023-01-30T06:27:27;47.63;;;20.65;;
75667;SDS011;64266;48.798;44.756;2023-01-30T06:32:30;56.17;;;21.58;;
75667;SDS011;64266;48.798;44.756;2023-01-30T06:37:33;52.10;;;24.02;;
75667;SDS011;64266;48.798;44.756;2023-01-30T06:42:37;49.92;;;21.05;;
75667;SDS011;64266;48.798;44.756;2023-01-30T06:47:52;55.50;;;23.55;;
75667;SDS011;64266;48.798;44.756;2023-01-30T06:53:00;53.30;;;22.50;;
75667;SDS011;64266;48.798;44.756;2023-01-30T06:58:09;54.70;;;24.13;;
75667;SDS011;64266;48.798;44.756;2023-01-30T07:03:14;56.45;;;23.33;;
75667;SDS011;64266;48.798;44.756;2023-01-30T07:08:18;58.75;;;22.20;;
75667;SDS011;64266;48.798;44.756;2023-01-30T07:13:24;55.90;;;22.15;;
75667;SDS011;64266;48.798;44.756;2023-01-30T07:18:27;54.95;;;21.88;;
75667;SDS011;64266;48.798;44.756;2023-01-30T07:23:30;56.70;;;22.85;;
75667;SDS011;64266;48.798;44.756;2023-01-30T07:28:33;54.95;;;22.48;;
75667;SDS011;64266;48.798;44.756;2023-01-30T07:33:37;51.50;;;22.25;;
75667;SDS011;64266;48.798;44.756;2023-01-30T07:38:40;56.35;;;20.98;;
75667;SDS011;64266;48.798;44.756;2023-01-30T07:43:44;67.75;;;27.23;;
75667;SDS011;64266;48.798;44.756;2023-01-30T07:48:47;54.92;;;24.23;;
75667;SDS011;64266;48.798;44.756;2023-01-30T07:53:50;51.83;;;22.77;;
75667;SDS011;64266;48.798;44.756;2023-01-30T07:58:54;60.17;;;24.23;;
75667;SDS011;64266;48.798;44.756;2023-01-30T08:03:58;61.72;;;25.80;;
75667;SDS011;64266;48.798;44.756;2023-01-30T08:09:02;65.55;;;26.60;;
75667;SDS011;64266;48.798;44.756;2023-01-30T08:14:07;56.97;;;25.75;;
75667;SDS011;64266;48.798;44.756;2023-01-30T08:19:10;61.05;;;25.25;;
75667;SDS011;64266;48.798;44.756;2023-01-30T08:24:16;66.75;;;25.77;;
75667;SDS011;64266;48.798;44.756;2023-01-30T08:29:20;62.83;;;26.70;;
75667;SDS011;64266;48.798;44.756;2023-01-30T08:34:23;58.17;;;24.38;;
75667;SDS011;64266;48.798;44.756;2023-01-30T08:39:29;65.18;;;26.10;;
75667;SDS011;64266;48.798;44.756;2023-01-30T08:44:39;66.50;;;28.20;;
75667;SDS011;64266;48.798;44.756;2023-01-30T08:49:47;62.92;;;26.52;;
75667;SDS011;64266;48.798;44.756;2023-01-30T08:54:53;66.18;;;27.05;;
75667;SDS011;64266;48.798;44.756;2023-01-30T08:59:56;67.68;;;27.88;;
75667;SDS011;64266;48.798;44.756;2023-01-30T09:05:02;66.40;;;28.27;;
75667;SDS011;64266;48.798;44.756;2023-01-30T09:10:06;70.30;;;28.38;;
75667;SDS011;64266;48.798;44.756;2023-01-30T09:15:12;61.92;;;27.13;;
75667;SDS011;64266;48.798;44.756;2023-01-30T09:20:16;66.20;;;26.95;;
75667;SDS011;64266;48.798;44.756;2023-01-30T09:25:22;66.13;;;27.17;;
75667;SDS011;64266;48.798;44.756;2023-01-30T09:30:25;78.15;;;28.70;;
75667;SDS011;64266;48.798;44.756;2023-01-30T09:35:29;60.83;;;24.88;;
75667;SDS011;64266;48.798;44.756;2023-01-30T09:40:32;62.88;;;27.25;;
75667;SDS011;64266;48.798;44.756;2023-01-30T09:56:15;62.30;;;27.17;;
75667;SDS011;64266;48.798;44.756;2023-01-30T10:18:28;68.95;;;28.17;;
75667;SDS011;64266;48.798;44.756;2023-01-30T10:29:32;64.75;;;27.52;;
75667;SDS011;64266;48.798;44.756;2023-01-30T10:34:45;61.85;;;26.73;;
75667;SDS011;64266;48.798;44.756;2023-01-30T10:45:14;63.40;;;27.35;;
75667;SDS011;64266;48.798;44.756;2023-01-30T10:50:40;61.90;;;27.25;;
75667;SDS011;64266;48.798;44.756;2023-01-30T11:06:30;62.88;;;26.23;;
75667;SDS011;64266;48.798;44.756;2023-01-30T11:11:51;60.22;;;25.67;;
75667;SDS011;64266;48.798;44.756;2023-01-30T11:16:56;68.43;;;27.30;;
75667;SDS011;64266;48.798;44.756;2023-01-30T11:22:02;64.78;;;26.83;;
75667;SDS011;64266;48.798;44.756;2023-01-30T11:32:19;65.75;;;29.25;;
75667;SDS011;64266;48.798;44.756;2023-01-30T11:37:31;63.42;;;25.38;;
75667;SDS011;64266;48.798;44.756;2023-01-30T11:42:37;60.40;;;26.98;;
75667;SDS011;64266;48.798;44.756;2023-01-30T11:47:52;61.67;;;27.13;;
75667;SDS011;64266;48.798;44.756;2023-01-30T11:53:13;65.53;;;26.88;;
75667;SDS011;64266;48.798;44.756;2023-01-30T11:58:37;60.42;;;26.00;;
75667;SDS011;64266;48.798;44.756;2023-01-30T12:03:44;59.08;;;25.98;;
75667;SDS011;64266;48.798;44.756;2023-01-30T12:08:52;68.65;;;26.58;;
75667;SDS011;64266;48.798;44.756;2023-01-30T12:14:07;59.85;;;26.55;;
75667;SDS011;64266;48.798;44.756;2023-01-30T12:24:49;61.08;;;26.33;;
75667;SDS011;64266;48.798;44.756;2023-01-30T12:35:16;63.00;;;25.70;;
75667;SDS011;64266;48.798;44.756;2023-01-30T12:40:34;72.15;;;29.48;;
75667;SDS011;64266;48.798;44.756;2023-01-30T12:46:01;69.80;;;31.55;;
75667;SDS011;64266;48.798;44.756;2023-01-30T12:57:34;59.95;;;26.05;;
75667;SDS011;64266;48.798;44.756;2023-01-30T13:02:51;65.57;;;28.17;;
75667;SDS011;64266;48.798;44.756;2023-01-30T13:08:21;64.90;;;25.98;;
75667;SDS011;64266;48.798;44.756;2023-01-30T13:19:17;65.78;;;26.52;;
75667;SDS011;64266;48.798;44.756;2023-01-30T13:34:49;62.08;;;26.40;;
75667;SDS011;64266;48.798;44.756;2023-01-30T13:39:58;68.90;;;31.30;;
75667;SDS011;64266;48.798;44.756;2023-01-30T13:45:14;67.47;;;27.58;;
75667;SDS011;64266;48.798;44.756;2023-01-30T14:12:45;67.65;;;27.88;;
75667;SDS011;64266;48.798;44.756;2023-01-30T14:23:32;70.28;;;27.88;;
75667;SDS011;64266;48.798;44.756;2023-01-30T14:28:43;68.53;;;27.52;;
75667;SDS011;64266;48.798;44.756;2023-01-30T14:33:48;63.95;;;26.63;;
75667;SDS011;64266;48.798;44.756;2023-01-30T14:38:56;66.35;;;28.02;;
75667;SDS011;64266;48.798;44.756;2023-01-30T14:44:56;66.38;;;28.45;;
75667;SDS011;64266;48.798;44.756;2023-01-30T14:50:16;66.70;;;28.13;;
75667;SDS011;64266;48.798;44.756;2023-01-30T14:55:23;63.60;;;26.30;;
75667;SDS011;64266;48.798;44.756;2023-01-30T15:00:30;60.72;;;26.73;;
75667;SDS011;64266;48.798;44.756;2023-01-30T15:05:41;62.85;;;26.77;;
75667;SDS011;64266;48.798;44.756;2023-01-30T15:26:59;68.85;;;29.73;;
75667;SDS011;64266;48.798;44.756;2023-01-30T15:42:38;61.45;;;26.17;;
75667;SDS011;64266;48.798;44.756;2023-01-30T15:53:24;61.53;;;24.05;;
75667;SDS011;64266;48.798;44.756;2023-01-30T15:58:41;55.33;;;23.95;;
75667;SDS011;64266;48.798;44.756;2023-01-30T16:03:46;59.97;;;26.70;;
75667;SDS011;64266;48.798;44.756;2023-01-30T16:08:55;59.40;;;24.85;;
75667;SDS011;64266;48.798;44.756;2023-01-30T16:14:18;58.05;;;23.60;;
75667;SDS011;64266;48.798;44.756;2023-01-30T16:19:27;59.22;;;23.77;;
75667;SDS011;64266;48.798;44.756;2023-01-30T16:24:33;62.63;;;26.05;;
75667;SDS011;64266;48.798;44.756;2023-01-30T16:29:48;61.88;;;25.83;;
75667;SDS011;64266;48.798;44.756;2023-01-30T16:40:17;63.13;;;24.65;;
75667;SDS011;64266;48.798;44.756;2023-01-30T16:50:35;56.88;;;23.95;;
75667;SDS011;64266;48.798;44.756;2023-01-30T16:55:38;63.13;;;25.65;;
75667;SDS011;64266;48.798;44.756;2023-01-30T17:00:49;59.42;;;25.60;;
75667;SDS011;64266;48.798;44.756;2023-01-30T17:05:52;64.57;;;26.45;;
75667;SDS011;64266;48.798;44.756;2023-01-30T17:11:02;58.53;;;25.73;;
75667;SDS011;64266;48.798;44.756;2023-01-30T17:21:23;60.47;;;26.02;;
75667;SDS011;64266;48.798;44.756;2023-01-30T17:26:28;65.93;;;27.67;;
75667;SDS011;64266;48.798;44.756;2023-01-30T17:31:32;60.92;;;25.67;;
75667;SDS011;64266;48.798;44.756;2023-01-30T17:36:34;60.78;;;26.05;;
75667;SDS011;64266;48.798;44.756;2023-01-30T17:41:38;58.65;;;24.80;;
75667;SDS011;64266;48.798;44.756;2023-01-30T17:46:46;65.40;;;26.65;;
75667;SDS011;64266;48.798;44.756;2023-01-30T17:51:51;61.00;;;24.23;;
75667;SDS011;64266;48.798;44.756;2023-01-30T17:56:54;60.15;;;25.20;;
75667;SDS011;64266;48.798;44.756;2023-01-30T18:02:00;63.22;;;26.02;;
75667;SDS011;64266;48.798;44.756;2023-01-30T18:07:03;58.05;;;25.60;;
75667;SDS011;64266;48.798;44.756;2023-01-30T18:12:10;60.90;;;25.95;;
75667;SDS011;64266;48.798;44.756;2023-01-30T18:17:13;59.88;;;24.02;;
75667;SDS011;64266;48.798;44.756;2023-01-30T18:22:16;65.70;;;25.75;;
75667;SDS011;64266;48.798;44.756;2023-01-30T18:27:18;65.25;;;25.77;;
75667;SDS011;64266;48.798;44.756;2023-01-30T18:32:21;56.05;;;25.40;;
75667;SDS011;64266;48.798;44.756;2023-01-30T18:37:23;57.33;;;25.50;;
75667;SDS011;64266;48.798;44.756;2023-01-30T18:42:26;58.58;;;24.92;;
75667;SDS011;64266;48.798;44.756;2023-01-30T18:47:28;64.03;;;24.92;;
75667;SDS011;64266;48.798;44.756;2023-01-30T18:52:31;61.28;;;24.50;;
75667;SDS011;64266;48.798;44.756;2023-01-30T18:57:33;58.53;;;25.70;;
75667;SDS011;64266;48.798;44.756;2023-01-30T19:02:36;61.63;;;24.25;;
75667;SDS011;64266;48.798;44.756;2023-01-30T19:07:38;60.03;;;24.83;;
75667;SDS011;64266;48.798;44.756;2023-01-30T19:12:41;59.95;;;26.23;;
75667;SDS011;64266;48.798;44.756;2023-01-30T19:18:03;63.67;;;27.30;;
75667;SDS011;64266;48.798;44.756;2023-01-30T19:23:06;67.68;;;25.88;;
75667;SDS011;64266;48.798;44.756;2023-01-30T19:28:09;57.88;;;23.60;;
75667;SDS011;64266;48.798;44.756;2023-01-30T19:33:13;57.38;;;25.00;;
75667;SDS011;64266;48.798;44.756;2023-01-30T19:38:16;67.72;;;25.92;;
75667;SDS011;64266;48.798;44.756;2023-01-30T19:43:19;56.40;;;23.58;;
75667;SDS011;64266;48.798;44.756;2023-01-30T19:48:22;53.88;;;22.55;;
75667;SDS011;64266;48.798;44.756;2023-01-30T19:53:24;57.17;;;23.98;;
75667;SDS011;64266;48.798;44.756;2023-01-30T19:58:28;58.55;;;24.17;;
75667;SDS011;64266;48.798;44.756;2023-01-30T20:03:30;58.40;;;24.58;;
75667;SDS011;64266;48.798;44.756;2023-01-30T20:08:33;52.83;;;24.20;;
75667;SDS011;64266;48.798;44.756;2023-01-30T20:13:38;57.30;;;24.20;;
75667;SDS011;64266;48.798;44.756;2023-01-30T20:18:42;57.25;;;24.50;;
75667;SDS011;64266;48.798;44.756;2023-01-30T20:23:47;61.42;;;24.45;;
75667;SDS011;64266;48.798;44.756;2023-01-30T20:28:50;57.78;;;24.73;;
75667;SDS011;64266;48.798;44.756;2023-01-30T20:33:58;54.90;;;22.88;;
75667;SDS011;64266;48.798;44.756;2023-01-30T20:39:03;56.60;;;24.08;;
75667;SDS011;64266;48.798;44.756;2023-01-30T20:44:08;53.60;;;22.73;;
75667;SDS011;64266;48.798;44.756;2023-01-30T20:49:20;57.70;;;24.08;;
75667;SDS011;64266;48.798;44.756;2023-01-30T20:54:24;56.63;;;23.90;;
75667;SDS011;64266;48.798;44.756;2023-01-30T20:59:27;52.67;;;22.33;;
75667;SDS011;64266;48.798;44.756;2023-01-30T21:04:30;66.32;;;24.80;;
75667;SDS011;64266;48.798;44.756;2023-01-30T21:09:32;61.47;;;24.02;;
75667;SDS011;64266;48.798;44.756;2023-01-30T21:14:35;64.07;;;24.73;;
75667;SDS011;64266;48.798;44.756;2023-01-30T21:19:39;58.78;;;24.38;;
75667;SDS011;64266;48.798;44.756;2023-01-30T21:24:44;59.65;;;24.00;;
75667;SDS011;64266;48.798;44.756;2023-01-30T21:29:47;62.70;;;25.83;;
75667;SDS011;64266;48.798;44.756;2023-01-30T21:34:50;67.78;;;27.05;;
75667;SDS011;64266;48.798;44.756;2023-01-30T21:39:53;74.03;;;30.08;;
75667;SDS011;64266;48.798;44.756;2023-01-30T21:45:15;72.05;;;29.13;;
75667;SDS011;64266;48.798;44.756;2023-01-30T21:50:19;72.97;;;29.02;;
75667;SDS011;64266;48.798;44.756;2023-01-30T21:55:22;71.72;;;29.55;;
75667;SDS011;64266;48.798;44.756;2023-01-30T22:00:25;72.15;;;31.58;;
75667;SDS011;64266;48.798;44.756;2023-01-30T22:05:28;75.38;;;30.77;;
75667;SDS011;64266;48.798;44.756;2023-01-30T22:10:37;76.18;;;32.65;;
75667;SDS011;64266;48.798;44.756;2023-01-30T22:15:41;74.82;;;31.48;;
75667;SDS011;64266;48.798;44.756;2023-01-30T22:20:45;71.28;;;27.13;;
75667;SDS011;64266;48.798;44.756;2023-01-30T22:25:53;72.72;;;29.45;;
75667;SDS011;64266;48.798;44.756;2023-01-30T22:31:00;66.63;;;31.08;;
75667;SDS011;64266;48.798;44.756;2023-01-30T22:36:05;63.90;;;26.15;;
75667;SDS011;64266;48.798;44.756;2023-01-30T22:41:09;67.80;;;28.23;;
75667;SDS011;64266;48.798;44.756;2023-01-30T22:46:17;70.45;;;29.00;;
75667;SDS011;64266;48.798;44.756;2023-01-30T22:51:22;71.68;;;27.77;;
75667;SDS011;64266;48.798;44.756;2023-01-30T22:56:27;71.63;;;28.73;;
75667;SDS011;64266;48.798;44.756;2023-01-30T23:01:33;70.32;;;27.25;;
75667;SDS011;64266;48.798;44.756;2023-01-30T23:06:41;70.18;;;28.05;;
75667;SDS011;64266;48.798;44.756;2023-01-30T23:11:45;65.43;;;27.17;;
75667;SDS011;64266;48.798;44.756;2023-01-30T23:17:10;65.53;;;26.70;;
75667;SDS011;64266;48.798;44.756;2023-01-30T23:22:31;60.95;;;26.77;;
75667;SDS011;64266;48.798;44.756;2023-01-30T23:27:34;65.22;;;26.23;;
75667;SDS011;64266;48.798;44.756;2023-01-30T23:32:37;66.63;;;26.80;;
75667;SDS011;64266;48.798;44.756;2023-01-30T23:37:41;68.88;;;27.35;;
75667;SDS011;64266;48.798;44.756;2023-01-30T23:43:02;69.68;;;27.40;;
75667;SDS011;64266;48.798;44.756;2023-01-30T23:48:06;72.28;;;27.67;;
75667;SDS011;64266;48.798;44.756;2023-01-30T23:53:12;71.97;;;28.73;;
75667;SDS011;64266;48.798;44.756;2023-01-30T23:58:14;63.90;;;26.13;;
